createdAt,value
2023-03-18T06:01:07.389Z,99.90
2023-03-18T06:06:11.524Z,99.90
2023-03-18T06:11:17.110Z,99.90
2023-03-18T06:16:22.527Z,99.90
2023-03-18T06:21:31.695Z,99.90
2023-03-18T06:26:35.345Z,99.90
2023-03-18T06:31:40.840Z,99.90
2023-03-18T06:36:44.483Z,99.90
2023-03-18T06:41:48.114Z,99.90
2023-03-18T06:46:56.261Z,99.90
2023-03-18T06:52:00.662Z,99.90
2023-03-18T06:57:06.576Z,99.90
2023-03-18T07:02:12.745Z,99.90
2023-03-18T07:07:16.645Z,99.90
2023-03-18T07:12:20.353Z,99.90
2023-03-18T07:17:25.761Z,99.90
2023-03-18T07:22:29.229Z,99.90
2023-03-18T07:27:32.756Z,99.90
2023-03-18T07:32:39.709Z,99.90
2023-03-18T07:37:43.512Z,99.90
2023-03-18T07:42:46.968Z,99.90
2023-03-18T07:47:51.723Z,99.90
2023-03-18T07:52:55.212Z,99.90
2023-03-18T07:57:58.622Z,99.90
2023-03-18T08:03:04.049Z,99.90
2023-03-18T08:08:07.567Z,99.90
2023-03-18T08:13:10.961Z,99.90
2023-03-18T08:18:15.855Z,99.90
2023-03-18T08:23:19.249Z,99.90
2023-03-18T08:28:22.630Z,99.90
2023-03-18T08:33:28.257Z,99.90
2023-03-18T08:38:31.774Z,99.90
2023-03-18T08:43:36.812Z,99.90
2023-03-18T08:48:43.272Z,99.90
2023-03-18T08:53:46.631Z,99.90
2023-03-18T08:59:50.049Z,99.90
2023-03-18T09:04:55.754Z,99.90
2023-03-18T09:15:05.963Z,99.90
2023-03-18T09:20:11.888Z,99.90
2023-03-18T09:30:22.049Z,99.90
2023-03-18T09:40:31.618Z,99.90
2023-03-18T09:45:44.684Z,99.90
2023-03-18T09:50:53.468Z,99.90
2023-03-18T09:56:01.086Z,99.90
2023-03-18T10:01:08.518Z,99.90
2023-03-18T10:06:18.148Z,99.90
2023-03-18T10:11:28.178Z,99.90
2023-03-18T10:16:51.179Z,99.90
2023-03-18T10:22:07.671Z,99.90
2023-03-18T10:27:19.169Z,99.90
2023-03-18T10:32:48.584Z,99.90
2023-03-18T10:37:58.419Z,99.90
2023-03-18T10:46:32.827Z,99.90
2023-03-18T10:51:41.259Z,99.90
2023-03-18T10:56:45.092Z,99.90
2023-03-18T11:01:54.404Z,99.90
2023-03-18T11:07:01.481Z,98.60
2023-03-18T11:12:07.382Z,98.80
2023-03-18T11:17:23.359Z,97.70
2023-03-18T11:22:28.098Z,96.40
2023-03-18T11:27:38.808Z,97.70
2023-03-18T11:32:53.874Z,98.00
2023-03-18T11:43:02.704Z,99.90
2023-03-18T11:48:13.268Z,99.90
2023-03-18T11:53:25.610Z,99.90
2023-03-18T11:58:54.549Z,99.90
2023-03-18T12:04:23.774Z,99.90
2023-03-18T12:09:33.853Z,99.90
2023-03-18T12:14:45.999Z,99.90
2023-03-18T12:20:13.852Z,99.90
2023-03-18T12:26:02.131Z,99.90
2023-03-18T12:31:39.988Z,99.90
2023-03-18T12:36:58.145Z,95.80
2023-03-18T12:42:05.934Z,94.80
2023-03-18T12:47:15.345Z,96.00
2023-03-18T12:52:28.613Z,95.50
2023-03-18T12:57:43.586Z,93.80
2023-03-18T13:02:55.391Z,92.40
2023-03-18T13:08:34.138Z,90.50
2023-03-18T13:13:41.418Z,87.50
2023-03-18T13:18:48.671Z,90.20
2023-03-18T13:24:27.271Z,90.80
2023-03-18T13:29:38.156Z,90.70
2023-03-18T13:35:06.490Z,90.80
2023-03-18T13:40:39.954Z,87.60
2023-03-18T13:45:47.924Z,88.50
2023-03-18T13:50:53.066Z,83.10
2023-03-18T13:56:07.061Z,80.50
2023-03-18T14:01:32.879Z,82.50
2023-03-18T14:06:59.467Z,85.90
2023-03-18T14:12:21.354Z,86.80
2023-03-18T14:17:35.199Z,95.60
2023-03-18T14:22:40.395Z,93.50
2023-03-18T14:27:51.577Z,90.50
2023-03-18T14:32:59.794Z,78.80
2023-03-18T14:38:07.362Z,89.60
2023-03-18T14:43:19.802Z,86.60
2023-03-18T14:48:29.394Z,76.80
2023-03-18T14:53:36.837Z,75.10
2023-03-18T14:58:41.809Z,72.60
2023-03-18T15:03:49.774Z,82.50
2023-03-18T15:08:59.659Z,74.60
2023-03-18T15:14:04.805Z,71.80
2023-03-18T15:19:12.992Z,72.40
2023-03-18T15:24:20.901Z,81.80
2023-03-18T15:29:33.282Z,82.20
2023-03-18T15:34:39.466Z,71.00
2023-03-18T15:44:57.234Z,71.40
2023-03-18T15:50:02.814Z,81.60
2023-03-18T15:55:28.067Z,73.50
2023-03-18T16:00:34.838Z,82.80
2023-03-18T16:05:40.283Z,83.40
2023-03-18T16:15:49.740Z,74.90
2023-03-18T16:25:59.084Z,85.20
2023-03-18T16:31:04.033Z,75.60
2023-03-18T16:36:08.441Z,85.50
2023-03-18T16:41:11.902Z,76.50
2023-03-18T16:46:17.474Z,87.60
2023-03-18T17:01:32.219Z,78.50
2023-03-18T17:16:45.796Z,79.70
2023-03-18T17:32:00.374Z,80.80
2023-03-18T17:42:18.646Z,92.10
2023-03-18T17:47:23.733Z,82.40
2023-03-18T18:02:37.896Z,83.50
2023-03-18T18:07:43.368Z,84.00
2023-03-18T18:12:49.837Z,85.40
2023-03-18T18:17:55.694Z,87.00
2023-03-18T18:33:09.007Z,88.50
2023-03-18T18:38:13.092Z,95.30
2023-03-18T18:48:25.875Z,90.40
2023-03-18T18:53:31.015Z,90.90
2023-03-18T18:58:37.528Z,97.10
2023-03-18T19:03:42.812Z,91.30
2023-03-18T19:08:47.294Z,97.40
2023-03-18T19:13:50.674Z,91.60
2023-03-18T19:18:56.094Z,91.30
2023-03-18T19:29:03.647Z,98.10
2023-03-18T19:34:17.263Z,91.80
2023-03-18T19:39:22.493Z,92.00
2023-03-18T19:44:27.492Z,99.10
2023-03-18T19:49:37.202Z,92.60
2023-03-18T19:59:48.872Z,99.90
2023-03-18T20:04:55.369Z,93.30
2023-03-18T20:20:16.705Z,99.90
2023-03-18T20:25:23.088Z,93.70
2023-03-18T20:30:30.365Z,93.90
2023-03-18T20:35:37.869Z,94.40
2023-03-18T20:45:45.919Z,94.60
2023-03-18T20:50:51.318Z,94.50
2023-03-18T21:00:59.166Z,94.80
2023-03-18T21:06:04.516Z,94.70
2023-03-18T21:16:15.084Z,95.10
2023-03-18T21:21:23.739Z,95.20
2023-03-18T21:31:32.893Z,99.90
2023-03-18T21:36:38.194Z,95.10
2023-03-18T21:46:45.537Z,99.90
2023-03-18T21:51:50.447Z,99.90
2023-03-18T22:07:03.143Z,99.90
2023-03-18T22:12:17.238Z,95.40
2023-03-18T22:17:22.951Z,99.90
2023-03-18T22:22:30.601Z,99.90
2023-03-18T22:32:40.610Z,94.50
2023-03-18T22:37:46.456Z,99.90
2023-03-18T22:42:51.848Z,99.90
2023-03-18T22:47:57.273Z,95.10
2023-03-18T22:53:03.878Z,99.90
2023-03-18T23:03:14.741Z,99.90
2023-03-18T23:08:20.650Z,96.40
2023-03-18T23:13:28.794Z,99.90
2023-03-18T23:18:32.435Z,99.90
2023-03-18T23:23:37.566Z,99.90
